Mc Comb/Pike County/John E Lewis Field
KMCB : now visible

Airfield :











YOU CAN JOIN US ON...

 
LOGIN :

Register | Disclaimer

   EN    FR    IT 

 









Legend :    VFR   Marginal VFR   IFR   Intensive IFR   Very Intensive IFR
Visi :
Ceiling :
>= 8 km
>= 3000ft
5 to 8 km
1000 to 3000 ft
1500m to 5 km
500 to 1000 ft
800 to 1500m
200 to 500 ft
< 800m
< 200 ft
Symbols :   Thunderstorms  Fog  Heavy snow  Heavy precipitations  Wind > 20 kt






- Airport Elevation : 413 ft


KMCB - Mc Comb/Pike County/John E Lewis Field

CURRENT METAR :
  • 141353Z AUTO 01003KT 10SM SCT034 OVC070 07/02 A3024 RMK AO2 SLP242 T00720017

EXPIRED METARs :
  • 141253Z AUTO 01003KT 10SM OVC075 07/02 A3023 RMK AO2 RAB1156E06 SLP236 P0000 T00670017
  • 141153Z AUTO 35006KT 10SM OVC034 07/02 A3022 RMK AO2 SLP235 60000 T00670017 10067 20061 53000

TAF KMCB
Valid from the 14 at 12:00 until the 15 at 12:00 UTC


141134Z 1412/1512 00000KT P6SM OVC030
FM142100 01006KT P6SM VCSH SCT030 BKN080 OVC150
FM150300 VRB04KT P6SM SCT050 OVC140
FM150600 35005KT P6SM SCT040 BKN120
FM150700 35005KT P6SM SCT060 BKN120



MET'MAP, your aeronautical weather chart ! - Copyright ORBIFLY December 2007 - Disclaimer

ORBIFLY MET'MAP TEAM :

Programming & Development : Alexandra Zaïnal
Concept & Development : Baudouin d'Aumeries
Co-Development & Prog : Marc-Olivier Méhu
Technical & hardware support : Manuel Goepfert

Contact : metmap@orbifly.com




SOURCES & CREDITS :

   NOAA       Earth
Advisory